createdAt,value
2023-08-12T00:01:12.698Z,18.21
2023-08-12T00:03:39.937Z,18.20
2023-08-12T00:06:07.212Z,18.18
2023-08-12T00:08:34.422Z,18.14
2023-08-12T00:11:01.527Z,18.16
2023-08-12T00:13:28.648Z,18.16
2023-08-12T00:15:55.807Z,18.13
2023-08-12T00:18:23.259Z,18.08
2023-08-12T00:20:50.407Z,18.05
2023-08-12T00:23:17.494Z,18.05
2023-08-12T00:25:44.554Z,18.01
2023-08-12T00:28:11.640Z,17.94
2023-08-12T00:30:38.718Z,17.90
2023-08-12T00:33:05.910Z,17.89
2023-08-12T00:35:33.046Z,17.80
2023-08-12T00:38:00.155Z,17.82
2023-08-12T00:40:27.499Z,17.79
2023-08-12T00:42:54.579Z,17.85
2023-08-12T00:45:21.877Z,17.83
2023-08-12T00:47:49.103Z,17.86
2023-08-12T00:50:16.993Z,17.84
2023-08-12T00:52:45.099Z,17.79
2023-08-12T00:55:14.135Z,17.76
2023-08-12T00:57:41.477Z,17.75
2023-08-12T01:00:09.162Z,17.78
2023-08-12T01:02:36.444Z,17.78
2023-08-12T01:05:05.552Z,17.77
2023-08-12T01:07:32.656Z,17.78
2023-08-12T01:09:59.978Z,17.78
2023-08-12T01:12:30.005Z,17.77
2023-08-12T01:15:02.777Z,17.75
2023-08-12T01:17:30.605Z,17.74
2023-08-12T01:19:57.971Z,17.73
2023-08-12T01:22:26.948Z,17.67
2023-08-12T01:24:54.087Z,17.67
2023-08-12T01:27:21.492Z,17.65
2023-08-12T01:29:50.562Z,17.65
2023-08-12T01:32:31.455Z,17.65
2023-08-12T01:35:01.537Z,17.62
2023-08-12T01:37:30.044Z,17.57
2023-08-12T01:39:59.885Z,17.52
2023-08-12T01:42:27.603Z,17.39
2023-08-12T01:44:55.198Z,17.39
2023-08-12T01:47:22.331Z,17.42
2023-08-12T01:49:49.427Z,17.34
2023-08-12T01:52:17.041Z,17.39
2023-08-12T01:54:44.311Z,17.41
2023-08-12T01:57:12.332Z,17.38
2023-08-12T01:59:39.803Z,17.38
2023-08-12T02:02:06.970Z,17.36
2023-08-12T02:04:34.678Z,17.33
2023-08-12T02:07:01.769Z,17.34
2023-08-12T02:09:28.887Z,17.34
2023-08-12T02:11:55.952Z,17.30
2023-08-12T02:14:23.187Z,17.27
2023-08-12T02:16:50.340Z,17.25
2023-08-12T02:19:17.554Z,17.06
2023-08-12T02:21:44.677Z,17.00
2023-08-12T02:24:11.751Z,16.84
2023-08-12T02:26:39.352Z,16.88
2023-08-12T02:29:06.572Z,16.84
2023-08-12T02:31:34.266Z,16.82
2023-08-12T02:34:01.426Z,16.91
2023-08-12T02:36:28.611Z,16.91
2023-08-12T02:38:57.502Z,16.94
2023-08-12T02:41:24.610Z,16.94
2023-08-12T02:43:51.798Z,16.94
2023-08-12T02:46:19.672Z,16.94
2023-08-12T02:48:48.565Z,16.76
2023-08-12T02:51:15.770Z,16.72
2023-08-12T02:53:42.866Z,16.78
2023-08-12T02:56:10.012Z,16.78
2023-08-12T02:58:38.666Z,16.74
2023-08-12T03:01:05.921Z,16.74
2023-08-12T03:03:33.239Z,16.76
2023-08-12T03:06:00.675Z,16.76
2023-08-12T03:08:29.406Z,16.77
2023-08-12T03:11:00.816Z,16.82
2023-08-12T03:13:28.263Z,16.82
2023-08-12T03:15:56.133Z,16.81
2023-08-12T03:18:23.446Z,16.74
2023-08-12T03:20:50.841Z,16.54
2023-08-12T03:23:18.569Z,16.46
2023-08-12T03:25:47.874Z,16.47
2023-08-12T03:28:15.204Z,16.52
2023-08-12T03:30:42.315Z,16.55
2023-08-12T03:33:09.530Z,16.57
2023-08-12T03:35:38.374Z,16.49
2023-08-12T03:38:05.524Z,16.47
2023-08-12T03:40:33.277Z,16.31
2023-08-12T03:43:01.394Z,16.27
2023-08-12T03:45:28.505Z,16.22
2023-08-12T03:47:55.760Z,16.31
2023-08-12T03:50:23.066Z,16.36
2023-08-12T03:52:50.194Z,16.43
2023-08-12T03:55:17.427Z,16.43
2023-08-12T03:57:44.496Z,16.43
2023-08-12T04:00:12.624Z,16.39
2023-08-12T04:02:42.845Z,16.42
2023-08-12T04:05:10.584Z,16.35
2023-08-12T04:07:37.948Z,16.36
2023-08-12T04:10:05.461Z,16.23
2023-08-12T04:12:32.585Z,16.33
2023-08-12T04:15:00.987Z,16.38
2023-08-12T04:17:28.204Z,16.35
2023-08-12T04:19:55.346Z,16.31
2023-08-12T04:22:22.477Z,16.36
2023-08-12T04:24:50.060Z,16.36
2023-08-12T04:27:20.298Z,16.33
2023-08-12T04:29:48.034Z,16.37
2023-08-12T04:32:15.322Z,16.33
2023-08-12T04:34:42.545Z,16.30
2023-08-12T04:37:10.117Z,16.36
2023-08-12T04:39:37.551Z,16.35
2023-08-12T04:42:04.866Z,16.30
2023-08-12T04:44:32.588Z,16.19
2023-08-12T04:46:59.696Z,16.18
2023-08-12T04:49:27.056Z,16.32
2023-08-12T04:51:54.164Z,16.40
2023-08-12T04:54:21.940Z,17.00
2023-08-12T04:56:49.830Z,17.87
2023-08-12T04:59:17.000Z,18.90
2023-08-12T05:01:58.510Z,19.79
2023-08-12T05:04:30.010Z,20.91
2023-08-12T05:06:57.646Z,21.35
2023-08-12T05:09:25.675Z,21.27
2023-08-12T05:11:52.803Z,20.76
2023-08-12T05:14:19.917Z,20.21
2023-08-12T05:16:47.740Z,19.80
2023-08-12T05:19:14.860Z,19.28
2023-08-12T05:21:41.978Z,18.90
2023-08-12T05:24:09.274Z,18.88
2023-08-12T05:26:36.405Z,18.82
2023-08-12T05:29:03.574Z,18.99
2023-08-12T05:31:30.946Z,19.18
2023-08-12T05:33:58.160Z,19.38
2023-08-12T05:36:25.375Z,19.69
2023-08-12T05:38:52.449Z,19.92
2023-08-12T05:41:19.556Z,20.21
2023-08-12T05:43:46.671Z,20.30
2023-08-12T05:46:13.798Z,20.23
2023-08-12T05:48:41.163Z,20.06
2023-08-12T05:51:08.238Z,19.97
2023-08-12T05:53:35.421Z,20.01
2023-08-12T05:56:02.656Z,20.37
2023-08-12T05:58:29.786Z,20.42
2023-08-12T06:00:56.919Z,20.50
2023-08-12T06:03:24.112Z,20.53
2023-08-12T06:05:51.254Z,20.74
2023-08-12T06:08:18.588Z,20.66
2023-08-12T06:10:45.683Z,21.13
2023-08-12T06:13:12.729Z,21.03
2023-08-12T06:15:40.269Z,21.20
2023-08-12T06:18:07.383Z,21.42
2023-08-12T06:20:34.583Z,21.68
2023-08-12T06:23:01.781Z,21.24
2023-08-12T06:25:28.930Z,21.60
2023-08-12T06:27:56.318Z,21.74
2023-08-12T06:30:23.688Z,21.89
2023-08-12T06:32:51.035Z,22.23
2023-08-12T06:35:18.229Z,21.96
2023-08-12T06:37:45.318Z,21.84
2023-08-12T06:40:12.450Z,22.30
2023-08-12T06:42:39.682Z,22.12
2023-08-12T06:45:07.109Z,22.16
2023-08-12T06:47:34.175Z,22.14
2023-08-12T06:50:01.295Z,22.39
2023-08-12T06:52:28.427Z,22.19
2023-08-12T06:54:55.574Z,22.76
2023-08-12T06:57:22.652Z,22.77
2023-08-12T06:59:49.945Z,22.22
2023-08-12T07:02:17.773Z,22.09
2023-08-12T07:04:44.896Z,21.95
2023-08-12T07:07:11.960Z,22.01
2023-08-12T07:09:39.254Z,22.03
2023-08-12T07:12:06.694Z,21.86
2023-08-12T07:14:33.758Z,21.96
2023-08-12T07:17:00.813Z,21.90
2023-08-12T07:19:27.883Z,21.67
2023-08-12T07:21:54.969Z,21.26
2023-08-12T07:24:22.048Z,21.63
2023-08-12T07:26:49.151Z,21.41
2023-08-12T07:29:16.240Z,21.80
2023-08-12T07:31:43.306Z,21.53
2023-08-12T07:34:14.020Z,21.60
2023-08-12T07:36:41.568Z,21.42
2023-08-12T07:39:08.661Z,21.22
2023-08-12T07:41:35.771Z,21.33
2023-08-12T07:44:02.919Z,21.55
2023-08-12T07:46:31.022Z,21.31
2023-08-12T07:48:58.292Z,21.36
2023-08-12T07:51:25.361Z,21.53
2023-08-12T07:53:52.505Z,21.62
2023-08-12T07:56:19.616Z,21.77
2023-08-12T07:58:47.078Z,21.87
2023-08-12T08:01:14.854Z,21.89
2023-08-12T08:03:41.982Z,21.64
2023-08-12T08:06:10.813Z,21.61
2023-08-12T08:08:37.985Z,21.72
2023-08-12T08:11:05.063Z,21.77
2023-08-12T08:13:32.155Z,21.71
2023-08-12T08:15:59.291Z,21.75
2023-08-12T08:18:26.549Z,21.84
2023-08-12T08:20:53.741Z,21.69
2023-08-12T08:23:20.884Z,21.80
2023-08-12T08:25:48.052Z,21.82
2023-08-12T08:28:15.088Z,21.72
2023-08-12T08:30:42.399Z,21.68
2023-08-12T08:33:09.622Z,21.87
2023-08-12T08:35:36.859Z,21.89
2023-08-12T08:38:04.098Z,21.96
2023-08-12T08:40:31.173Z,21.82
2023-08-12T08:43:00.026Z,21.95
2023-08-12T08:45:27.659Z,22.09
2023-08-12T08:47:55.067Z,22.12
2023-08-12T08:50:22.567Z,22.25
2023-08-12T08:52:51.090Z,22.10
2023-08-12T08:55:19.905Z,22.20
2023-08-12T08:57:49.822Z,22.18
2023-08-12T09:00:18.620Z,22.19
2023-08-12T09:02:50.488Z,21.98
2023-08-12T09:05:18.298Z,22.22
2023-08-12T09:07:45.975Z,22.30
2023-08-12T09:10:15.646Z,22.31
2023-08-12T09:12:43.378Z,22.53
2023-08-12T09:15:10.808Z,22.51
2023-08-12T09:17:38.272Z,22.81
2023-08-12T09:20:12.296Z,22.81
2023-08-12T09:22:40.740Z,22.79
2023-08-12T09:25:09.398Z,22.75
2023-08-12T09:27:37.142Z,22.61
2023-08-12T09:30:04.601Z,22.86
2023-08-12T09:32:31.878Z,22.99
2023-08-12T09:34:58.951Z,23.10
2023-08-12T09:37:26.130Z,23.04
2023-08-12T09:39:53.426Z,23.17
2023-08-12T09:42:20.479Z,23.10
2023-08-12T09:44:47.710Z,23.08
2023-08-12T09:47:15.485Z,23.26
2023-08-12T09:49:42.685Z,23.43
2023-08-12T09:52:10.260Z,23.27
2023-08-12T09:54:37.813Z,23.56
2023-08-12T09:57:07.514Z,23.66
2023-08-12T09:59:39.073Z,23.67
2023-08-12T10:02:08.378Z,23.76
2023-08-12T10:04:41.044Z,23.78
2023-08-12T10:07:09.028Z,23.99
2023-08-12T10:09:39.130Z,24.00
2023-08-12T10:12:07.671Z,24.38
2023-08-12T10:14:34.928Z,24.10
2023-08-12T10:17:06.071Z,24.66
2023-08-12T10:19:34.961Z,24.80
2023-08-12T10:22:03.701Z,24.48
2023-08-12T10:24:30.924Z,24.72
2023-08-12T10:26:58.079Z,24.93
2023-08-12T10:29:25.818Z,25.26
2023-08-12T10:31:53.099Z,25.13
2023-08-12T10:34:23.944Z,25.65
2023-08-12T10:37:03.003Z,25.72
2023-08-12T10:39:33.890Z,25.79
2023-08-12T10:42:01.049Z,25.95
2023-08-12T10:44:41.852Z,25.90
2023-08-12T10:47:10.472Z,26.12
2023-08-12T10:49:43.744Z,26.13
2023-08-12T10:52:26.923Z,25.90
2023-08-12T10:54:54.125Z,26.10
2023-08-12T10:57:35.534Z,26.28
2023-08-12T11:00:04.476Z,26.50
2023-08-12T11:02:35.684Z,26.79
2023-08-12T11:05:10.189Z,27.04
2023-08-12T11:07:41.702Z,27.17
2023-08-12T11:10:13.040Z,27.27
2023-08-12T11:12:41.031Z,27.03
2023-08-12T11:15:08.361Z,27.12
2023-08-12T11:17:35.803Z,27.26
2023-08-12T11:20:05.383Z,27.40
2023-08-12T11:22:33.391Z,27.16
2023-08-12T11:25:00.978Z,27.06
2023-08-12T11:27:28.069Z,27.44
2023-08-12T11:29:55.126Z,27.57
2023-08-12T11:32:22.207Z,27.42
2023-08-12T11:34:49.590Z,27.32
2023-08-12T11:37:16.802Z,27.64
2023-08-12T11:39:43.945Z,27.60
2023-08-12T11:42:11.163Z,27.71
2023-08-12T11:44:40.822Z,27.89
2023-08-12T11:47:07.907Z,27.89
2023-08-12T11:49:34.983Z,28.03
2023-08-12T11:52:02.184Z,28.05
2023-08-12T11:54:30.203Z,28.10
2023-08-12T11:56:58.200Z,28.28
2023-08-12T11:59:25.583Z,28.36
2023-08-12T12:01:52.715Z,28.22
2023-08-12T12:04:21.853Z,28.25
2023-08-12T12:06:49.279Z,28.55
2023-08-12T12:09:19.178Z,28.51
2023-08-12T12:11:46.308Z,28.41
2023-08-12T12:14:13.408Z,28.42
2023-08-12T12:16:41.712Z,28.62
2023-08-12T12:19:16.809Z,28.58
2023-08-12T12:21:45.854Z,28.82
2023-08-12T12:24:12.957Z,28.81
2023-08-12T12:26:40.062Z,28.84
2023-08-12T12:29:07.179Z,28.70
2023-08-12T12:31:35.305Z,28.85
2023-08-12T12:34:05.805Z,28.61
2023-08-12T12:36:33.238Z,28.71
2023-08-12T12:39:00.536Z,28.91
2023-08-12T12:41:27.616Z,28.87
2023-08-12T12:43:54.778Z,29.00
2023-08-12T12:46:22.128Z,29.05
2023-08-12T12:48:49.383Z,28.99
2023-08-12T12:51:16.552Z,28.98
2023-08-12T12:53:43.783Z,29.36
2023-08-12T12:56:10.868Z,29.60
2023-08-12T12:58:38.379Z,29.19
2023-08-12T13:01:05.816Z,29.20
2023-08-12T13:03:33.043Z,29.27
2023-08-12T13:06:00.397Z,29.78
2023-08-12T13:08:27.492Z,29.16
2023-08-12T13:10:54.640Z,29.53
2023-08-12T13:13:21.714Z,29.85
2023-08-12T13:15:48.838Z,29.77
2023-08-12T13:18:15.999Z,29.11
2023-08-12T13:20:43.147Z,29.40
2023-08-12T13:23:10.167Z,29.41
2023-08-12T13:25:37.320Z,29.48
2023-08-12T13:28:04.708Z,29.02
2023-08-12T13:30:31.855Z,29.12
2023-08-12T13:33:01.317Z,29.22
2023-08-12T13:35:29.113Z,29.58
2023-08-12T13:37:56.326Z,29.46
2023-08-12T13:40:23.562Z,29.18
2023-08-12T13:42:51.796Z,29.23
2023-08-12T13:45:18.942Z,29.22
2023-08-12T13:47:46.215Z,29.22
2023-08-12T13:50:14.390Z,29.23
2023-08-12T13:52:41.612Z,29.53
2023-08-12T13:55:08.764Z,29.30
2023-08-12T13:57:36.153Z,29.46
2023-08-12T14:00:05.545Z,29.31
2023-08-12T14:02:40.053Z,29.10
2023-08-12T14:05:07.730Z,28.85
2023-08-12T14:07:34.866Z,29.10
2023-08-12T14:10:01.984Z,29.37
2023-08-12T14:12:29.111Z,29.44
2023-08-12T14:14:56.180Z,29.60
2023-08-12T14:17:24.396Z,29.33
2023-08-12T14:20:00.810Z,28.97
2023-08-12T14:22:28.128Z,28.71
2023-08-12T14:27:27.143Z,28.77
2023-08-12T14:29:54.185Z,28.40
2023-08-12T14:32:21.255Z,28.58
2023-08-12T14:34:48.704Z,28.79
2023-08-12T14:37:16.290Z,28.85
2023-08-12T14:39:43.598Z,28.70
2023-08-12T14:42:11.472Z,28.43
2023-08-12T14:44:38.605Z,28.33
2023-08-12T14:47:06.133Z,28.04
2023-08-12T14:49:33.232Z,27.79
2023-08-12T14:52:00.404Z,28.05
2023-08-12T14:54:27.474Z,27.79
2023-08-12T14:56:54.523Z,27.63
2023-08-12T14:59:21.623Z,27.47
2023-08-12T15:01:48.686Z,27.15
2023-08-12T15:04:15.896Z,25.69
2023-08-12T15:06:43.037Z,24.68
2023-08-12T15:09:10.530Z,24.49
2023-08-12T15:11:37.689Z,24.08
2023-08-12T15:14:04.913Z,23.97
2023-08-12T15:16:32.971Z,23.59
2023-08-12T15:19:00.118Z,23.77
2023-08-12T15:21:27.188Z,23.88
2023-08-12T15:23:54.367Z,23.43
2023-08-12T15:26:21.545Z,23.20
2023-08-12T15:28:48.607Z,23.13
2023-08-12T15:31:16.007Z,22.80
2023-08-12T15:33:43.368Z,22.61
2023-08-12T15:36:10.440Z,22.39
2023-08-12T15:38:38.390Z,22.74
2023-08-12T15:41:16.533Z,22.88
2023-08-12T15:43:43.644Z,22.85
2023-08-12T15:46:10.808Z,22.61
2023-08-12T15:48:38.042Z,22.50
2023-08-12T15:51:05.101Z,22.66
2023-08-12T15:53:32.237Z,22.33
2023-08-12T15:55:59.290Z,22.18
2023-08-12T15:58:26.490Z,22.17
2023-08-12T16:00:53.546Z,22.40
2023-08-12T16:03:21.176Z,22.56
2023-08-12T16:05:49.808Z,22.47
2023-08-12T16:08:17.648Z,22.34
2023-08-12T16:10:44.756Z,22.28
2023-08-12T16:13:11.870Z,22.30
2023-08-12T16:15:39.046Z,22.31
2023-08-12T16:18:06.282Z,22.42
2023-08-12T16:20:33.367Z,22.20
2023-08-12T16:23:00.477Z,22.19
2023-08-12T16:25:27.576Z,21.91
2023-08-12T16:27:54.669Z,22.12
2023-08-12T16:30:21.744Z,22.22
2023-08-12T16:32:48.896Z,22.45
2023-08-12T16:35:15.992Z,22.58
2023-08-12T16:37:43.047Z,22.56
2023-08-12T16:40:11.113Z,22.74
2023-08-12T16:42:38.231Z,22.69
2023-08-12T16:45:05.885Z,22.38
2023-08-12T16:47:33.181Z,22.62
2023-08-12T16:50:00.470Z,22.71
2023-08-12T16:52:27.634Z,22.70
2023-08-12T16:54:54.803Z,22.60
2023-08-12T16:57:21.913Z,22.71
2023-08-12T16:59:49.123Z,22.52
2023-08-12T17:02:16.455Z,22.63
2023-08-12T17:04:43.952Z,22.64
2023-08-12T17:07:11.110Z,22.81
2023-08-12T17:09:38.181Z,22.69
2023-08-12T17:12:05.823Z,22.65
2023-08-12T17:14:32.930Z,22.62
2023-08-12T17:17:00.281Z,22.68
2023-08-12T17:19:27.409Z,22.48
2023-08-12T17:21:54.565Z,22.55
2023-08-12T17:24:21.660Z,22.32
2023-08-12T17:26:48.820Z,22.32
2023-08-12T17:29:15.974Z,22.36
2023-08-12T17:31:43.093Z,22.37
2023-08-12T17:34:10.177Z,22.49
2023-08-12T17:36:37.275Z,22.51
2023-08-12T17:39:05.698Z,22.47
2023-08-12T17:41:32.791Z,22.49
2023-08-12T17:43:59.873Z,22.49
2023-08-12T17:46:27.004Z,22.43
2023-08-12T17:48:54.192Z,22.41
2023-08-12T17:51:21.278Z,22.28
2023-08-12T17:53:48.540Z,22.22
2023-08-12T17:56:16.649Z,22.04
2023-08-12T17:58:44.653Z,22.05
2023-08-12T18:01:12.651Z,22.10
2023-08-12T18:03:40.113Z,22.11
2023-08-12T18:06:07.365Z,22.08
2023-08-12T18:08:34.565Z,22.09
2023-08-12T18:11:02.809Z,22.06
2023-08-12T18:13:30.336Z,22.02
2023-08-12T18:15:57.897Z,21.95
2023-08-12T18:18:25.212Z,21.85
2023-08-12T18:20:52.288Z,21.82
2023-08-12T18:23:19.413Z,21.83
2023-08-12T18:25:46.501Z,21.83
2023-08-12T18:28:13.593Z,21.79
2023-08-12T18:30:40.682Z,21.71
2023-08-12T18:33:07.909Z,21.64
2023-08-12T18:35:35.141Z,21.49
2023-08-12T18:38:02.464Z,21.53
2023-08-12T18:40:31.622Z,21.55
2023-08-12T18:43:00.228Z,21.57
2023-08-12T18:45:29.497Z,21.57
2023-08-12T18:47:56.684Z,21.53
2023-08-12T18:50:24.395Z,21.50
2023-08-12T18:52:51.686Z,21.33
2023-08-12T18:55:19.496Z,21.31
2023-08-12T18:57:46.697Z,21.16
2023-08-12T19:00:14.962Z,21.07
2023-08-12T19:02:42.421Z,21.04
2023-08-12T19:05:09.676Z,20.98
2023-08-12T19:07:36.768Z,21.04
2023-08-12T19:10:03.979Z,20.80
2023-08-12T19:12:31.395Z,20.95
2023-08-12T19:14:58.488Z,21.09
2023-08-12T19:17:25.634Z,21.12
2023-08-12T19:19:52.691Z,21.10
2023-08-12T19:22:20.414Z,21.02
2023-08-12T19:24:47.503Z,21.05
2023-08-12T19:27:14.585Z,21.02
2023-08-12T19:29:41.783Z,20.98
2023-08-12T19:32:09.373Z,20.92
2023-08-12T19:34:36.434Z,20.84
2023-08-12T19:37:03.981Z,20.87
2023-08-12T19:39:31.301Z,20.89
2023-08-12T19:41:58.721Z,20.91
2023-08-12T19:44:25.959Z,20.59
2023-08-12T19:46:53.078Z,20.69
2023-08-12T19:49:20.272Z,20.71
2023-08-12T19:51:47.334Z,20.73
2023-08-12T19:54:14.411Z,20.64
2023-08-12T19:56:41.504Z,20.61
2023-08-12T19:59:08.588Z,20.62
2023-08-12T20:01:36.022Z,20.62
2023-08-12T20:04:03.935Z,20.66
2023-08-12T20:06:31.464Z,20.66
2023-08-12T20:08:59.127Z,20.67
2023-08-12T20:11:26.250Z,20.61
2023-08-12T20:13:53.725Z,20.59
2023-08-12T20:16:21.515Z,20.56
2023-08-12T20:18:49.922Z,20.57
2023-08-12T20:21:17.029Z,20.41
2023-08-12T20:23:44.164Z,20.40
2023-08-12T20:26:11.305Z,20.33
2023-08-12T20:28:38.758Z,20.23
2023-08-12T20:31:05.826Z,20.28
2023-08-12T20:33:33.072Z,20.23
2023-08-12T20:36:00.270Z,20.18
2023-08-12T20:38:27.625Z,20.21
2023-08-12T20:40:54.694Z,20.18
2023-08-12T20:43:21.757Z,20.10
2023-08-12T20:45:48.859Z,20.12
2023-08-12T20:48:16.966Z,20.11
2023-08-12T20:50:44.231Z,20.03
2023-08-12T20:53:11.419Z,19.99
2023-08-12T20:55:38.538Z,19.98
2023-08-12T20:58:06.482Z,20.00
2023-08-12T21:00:33.727Z,19.89
2023-08-12T21:03:00.837Z,19.90
2023-08-12T21:05:27.920Z,19.86
2023-08-12T21:07:54.994Z,19.71
2023-08-12T21:10:22.088Z,19.66
2023-08-12T21:12:49.156Z,19.55
2023-08-12T21:15:16.269Z,19.55
2023-08-12T21:17:43.477Z,19.55
2023-08-12T21:20:10.920Z,19.56
2023-08-12T21:22:38.042Z,19.68
2023-08-12T21:25:05.559Z,19.69
2023-08-12T21:27:32.803Z,19.57
2023-08-12T21:29:59.958Z,19.58
2023-08-12T21:32:27.096Z,19.50
2023-08-12T21:34:54.185Z,19.42
2023-08-12T21:37:21.260Z,19.26
2023-08-12T21:39:48.358Z,19.17
2023-08-12T21:42:15.566Z,19.16
2023-08-12T21:44:42.918Z,19.11
2023-08-12T21:47:10.551Z,19.13
2023-08-12T21:49:37.687Z,19.07
2023-08-12T21:52:04.877Z,19.07
2023-08-12T21:54:32.029Z,19.03
2023-08-12T21:56:59.238Z,18.93
2023-08-12T21:59:26.300Z,18.91
2023-08-12T22:01:53.550Z,18.95
2023-08-12T22:04:20.749Z,18.98
2023-08-12T22:06:47.863Z,18.98
2023-08-12T22:09:14.914Z,18.93
2023-08-12T22:11:42.217Z,18.97
2023-08-12T22:14:09.304Z,18.92
2023-08-12T22:16:36.371Z,18.91
2023-08-12T22:19:03.746Z,18.94
2023-08-12T22:21:30.853Z,18.91
2023-08-12T22:23:57.914Z,18.95
2023-08-12T22:26:24.975Z,19.03
2023-08-12T22:28:52.075Z,19.03
2023-08-12T22:31:19.144Z,18.94
2023-08-12T22:33:46.284Z,18.95
2023-08-12T22:36:13.385Z,18.92
2023-08-12T22:38:40.511Z,18.92
2023-08-12T22:41:07.605Z,18.86
2023-08-12T22:43:34.705Z,18.85
2023-08-12T22:46:01.857Z,18.92
2023-08-12T22:48:28.997Z,18.95
2023-08-12T22:50:56.082Z,18.93
2023-08-12T22:53:23.212Z,18.88
2023-08-12T22:55:50.329Z,18.85
2023-08-12T22:58:17.411Z,18.74
2023-08-12T23:00:44.597Z,18.77
2023-08-12T23:03:11.793Z,18.81
2023-08-12T23:05:38.955Z,18.81
2023-08-12T23:08:06.185Z,18.73
2023-08-12T23:10:33.311Z,18.70
2023-08-12T23:13:00.500Z,18.63
2023-08-12T23:15:27.615Z,18.59
2023-08-12T23:17:54.737Z,18.62
2023-08-12T23:20:21.891Z,18.67
2023-08-12T23:22:49.003Z,18.59
2023-08-12T23:25:16.390Z,18.60
2023-08-12T23:27:43.466Z,18.65
2023-08-12T23:30:15.010Z,18.67
2023-08-12T23:32:44.470Z,18.72
2023-08-12T23:35:18.851Z,18.69
2023-08-12T23:37:46.639Z,18.70
2023-08-12T23:40:14.045Z,18.67
2023-08-12T23:42:41.875Z,18.64
2023-08-12T23:45:10.155Z,18.62
2023-08-12T23:47:39.657Z,18.63
2023-08-12T23:50:07.090Z,18.58
2023-08-12T23:52:34.175Z,18.63
2023-08-12T23:55:01.263Z,18.69
2023-08-12T23:57:28.395Z,18.71
2023-08-12T23:59:55.479Z,18.70
